createdAt,value
2019-02-06T00:01:12.245Z,78.93
2019-02-06T00:03:41.127Z,78.87
2019-02-06T00:06:10.328Z,78.50
2019-02-06T00:08:39.196Z,78.46
2019-02-06T00:11:08.060Z,78.95
2019-02-06T00:13:37.039Z,78.48
2019-02-06T00:16:06.138Z,79.04
2019-02-06T00:18:35.064Z,78.86
2019-02-06T00:21:04.140Z,78.33
2019-02-06T00:23:33.023Z,78.33
2019-02-06T00:26:01.881Z,78.12
2019-02-06T00:28:31.140Z,78.39
2019-02-06T00:31:00.016Z,79.30
2019-02-06T00:33:28.899Z,78.94
2019-02-06T00:35:57.805Z,79.29
2019-02-06T00:38:26.704Z,78.22
2019-02-06T00:40:55.601Z,78.39
2019-02-06T00:43:24.841Z,77.71
2019-02-06T00:45:53.886Z,78.23
2019-02-06T00:48:22.751Z,78.26
2019-02-06T00:50:51.671Z,77.91
2019-02-06T00:53:20.624Z,77.83
2019-02-06T00:55:49.537Z,77.92
2019-02-06T00:58:18.413Z,78.48
2019-02-06T01:00:47.272Z,78.64
2019-02-06T01:03:16.281Z,77.87
2019-02-06T01:05:45.154Z,77.53
2019-02-06T01:08:14.100Z,77.73
2019-02-06T01:10:43.066Z,78.05
2019-02-06T01:13:11.927Z,77.54
2019-02-06T01:15:41.124Z,77.33
2019-02-06T01:18:10.136Z,77.11
2019-02-06T01:20:39.021Z,77.06
2019-02-06T01:23:07.882Z,77.64
2019-02-06T01:25:36.770Z,77.23
2019-02-06T01:28:05.647Z,77.28
2019-02-06T01:30:44.749Z,77.49
2019-02-06T01:33:13.617Z,77.42
2019-02-06T01:35:49.413Z,77.60
2019-02-06T01:38:13.073Z,77.31
2019-02-06T01:40:41.981Z,77.21
2019-02-06T01:43:10.879Z,77.28
2019-02-06T01:45:40.382Z,77.83
2019-02-06T01:48:09.276Z,77.77
2019-02-06T01:50:38.139Z,77.87
2019-02-06T01:53:07.003Z,77.80
2019-02-06T01:55:35.867Z,77.65
2019-02-06T01:58:04.891Z,77.79
2019-02-06T02:00:33.932Z,77.03
2019-02-06T02:03:02.794Z,76.92
2019-02-06T02:05:31.757Z,76.27
2019-02-06T02:08:00.622Z,76.64
2019-02-06T02:10:29.520Z,76.76
2019-02-06T02:12:58.725Z,76.72
2019-02-06T02:15:27.606Z,77.60
2019-02-06T02:17:56.762Z,76.47
2019-02-06T02:20:25.673Z,76.35
2019-02-06T02:22:54.530Z,76.39
2019-02-06T02:25:23.452Z,76.04
2019-02-06T02:27:52.340Z,76.36
2019-02-06T02:30:25.904Z,76.38
2019-02-06T02:32:54.784Z,76.21
2019-02-06T02:35:23.695Z,76.28
2019-02-06T02:37:52.552Z,75.79
2019-02-06T02:40:21.426Z,75.79
2019-02-06T02:42:50.319Z,76.26
2019-02-06T02:45:19.665Z,75.80
2019-02-06T02:47:49.091Z,75.23
2019-02-06T02:50:17.960Z,75.47
2019-02-06T02:52:46.829Z,75.43
2019-02-06T02:55:15.898Z,74.28
2019-02-06T02:57:44.861Z,74.06
2019-02-06T03:00:28.355Z,73.54
2019-02-06T03:02:58.866Z,73.63
2019-02-06T03:05:29.403Z,72.97
2019-02-06T03:07:58.290Z,72.70
2019-02-06T03:10:27.158Z,71.56
2019-02-06T03:12:56.051Z,71.39
2019-02-06T03:15:25.121Z,71.35
2019-02-06T03:17:54.022Z,71.26
2019-02-06T03:20:22.887Z,71.18
2019-02-06T03:22:51.793Z,70.68
2019-02-06T03:25:20.699Z,72.02
2019-02-06T03:27:49.566Z,71.41
2019-02-06T03:30:19.910Z,71.90
2019-02-06T03:32:48.820Z,72.18
2019-02-06T03:35:18.454Z,72.17
2019-02-06T03:37:47.317Z,72.78
2019-02-06T03:40:18.139Z,73.71
2019-02-06T03:42:47.199Z,73.23
2019-02-06T03:45:17.383Z,73.31
2019-02-06T03:47:46.310Z,73.83
2019-02-06T03:50:19.737Z,73.59
2019-02-06T03:52:48.746Z,73.79
2019-02-06T03:55:17.741Z,74.26
2019-02-06T03:57:46.593Z,74.34
2019-02-06T04:00:17.873Z,74.21
2019-02-06T04:02:46.728Z,74.43
2019-02-06T04:05:16.058Z,74.96
2019-02-06T04:07:44.921Z,75.50
2019-02-06T04:10:20.547Z,75.79
2019-02-06T04:12:49.442Z,76.65
2019-02-06T04:15:18.475Z,77.37
2019-02-06T04:17:47.338Z,77.95
2019-02-06T04:20:17.371Z,78.24
2019-02-06T04:22:46.894Z,78.64
2019-02-06T04:25:16.026Z,78.92
2019-02-06T04:27:44.888Z,78.51
2019-02-06T04:30:18.537Z,80.08
2019-02-06T04:32:47.474Z,80.56
2019-02-06T04:35:16.788Z,80.54
2019-02-06T04:37:45.649Z,80.56
2019-02-06T04:40:18.728Z,81.29
2019-02-06T04:42:47.955Z,82.04
2019-02-06T04:45:20.311Z,82.33
2019-02-06T04:47:49.193Z,82.42
2019-02-06T04:50:18.708Z,83.46
2019-02-06T04:52:47.594Z,84.14
2019-02-06T04:55:18.033Z,84.20
2019-02-06T04:57:47.254Z,84.00
2019-02-06T05:00:21.709Z,84.21
2019-02-06T05:02:50.658Z,84.26
2019-02-06T05:05:19.522Z,84.73
2019-02-06T05:07:48.491Z,84.84
2019-02-06T05:10:19.042Z,85.26
2019-02-06T05:12:48.216Z,86.02
2019-02-06T05:15:18.358Z,86.09
2019-02-06T05:17:47.234Z,86.70
2019-02-06T05:20:31.629Z,87.08
2019-02-06T05:23:00.569Z,87.49
2019-02-06T05:25:29.617Z,87.58
2019-02-06T05:27:58.491Z,87.45
2019-02-06T05:30:27.461Z,88.28
2019-02-06T05:32:56.336Z,89.11
2019-02-06T05:35:25.233Z,89.27
2019-02-06T05:37:54.086Z,89.75
2019-02-06T05:40:23.391Z,90.29
2019-02-06T05:42:52.880Z,90.43
2019-02-06T05:45:21.897Z,90.36
2019-02-06T05:47:50.770Z,90.41
2019-02-06T05:50:19.956Z,89.81
2019-02-06T05:52:48.813Z,90.25
2019-02-06T05:55:18.367Z,90.11
2019-02-06T05:57:47.924Z,90.11
2019-02-06T06:00:21.126Z,90.37
2019-02-06T06:02:50.017Z,90.81
2019-02-06T06:05:18.994Z,90.63
2019-02-06T06:07:47.886Z,90.29
2019-02-06T06:10:18.509Z,90.56
2019-02-06T06:12:47.891Z,90.63
2019-02-06T06:15:19.596Z,90.55
2019-02-06T06:17:48.444Z,90.61
2019-02-06T06:20:19.466Z,90.68
2019-02-06T06:22:48.887Z,90.77
2019-02-06T06:25:19.939Z,90.92
2019-02-06T06:27:49.333Z,90.96
2019-02-06T06:30:20.136Z,91.24
2019-02-06T06:32:49.177Z,91.43
2019-02-06T06:35:18.029Z,91.48
2019-02-06T06:37:57.545Z,91.29
2019-02-06T06:40:20.311Z,91.45
2019-02-06T06:42:49.628Z,91.11
2019-02-06T06:45:21.234Z,91.34
2019-02-06T06:47:51.675Z,91.98
2019-02-06T06:50:24.832Z,91.77
2019-02-06T06:52:53.745Z,91.98
2019-02-06T06:55:22.980Z,91.89
2019-02-06T06:57:51.925Z,91.50
2019-02-06T07:00:29.515Z,91.57
2019-02-06T07:02:58.455Z,91.85
2019-02-06T07:05:27.676Z,92.20
2019-02-06T07:07:56.716Z,91.77
2019-02-06T07:10:27.387Z,91.44
2019-02-06T07:12:56.280Z,90.87
2019-02-06T07:15:27.674Z,90.86
2019-02-06T07:17:56.549Z,90.95
2019-02-06T07:20:25.502Z,90.54
2019-02-06T07:22:54.383Z,90.28
2019-02-06T07:25:23.254Z,89.83
2019-02-06T07:27:52.145Z,89.22
2019-02-06T07:30:29.478Z,89.19
2019-02-06T07:32:58.436Z,88.92
2019-02-06T07:35:27.324Z,88.78
2019-02-06T07:37:56.704Z,88.62
2019-02-06T07:40:25.933Z,87.54
2019-02-06T07:42:54.857Z,87.28
2019-02-06T07:45:23.731Z,86.69
2019-02-06T07:47:52.605Z,87.76
2019-02-06T07:50:26.851Z,87.58
2019-02-06T07:52:56.075Z,86.99
2019-02-06T07:55:24.984Z,86.83
2019-02-06T07:57:53.845Z,87.04
2019-02-06T08:00:22.775Z,87.25
2019-02-06T08:02:52.291Z,87.31
2019-02-06T08:05:22.309Z,87.00
2019-02-06T08:07:51.699Z,86.76
2019-02-06T08:10:26.485Z,86.48
2019-02-06T08:12:55.356Z,86.16
2019-02-06T08:15:24.419Z,85.83
2019-02-06T08:17:53.317Z,85.33
2019-02-06T08:20:23.461Z,85.38
2019-02-06T08:22:52.889Z,85.48
2019-02-06T08:25:23.608Z,85.44
2019-02-06T08:27:52.561Z,84.85
2019-02-06T08:30:24.063Z,84.71
2019-02-06T08:32:53.013Z,84.62
2019-02-06T08:35:21.947Z,84.67
2019-02-06T08:37:51.244Z,84.25
2019-02-06T08:40:23.082Z,83.38
2019-02-06T08:42:52.045Z,83.55
2019-02-06T08:45:21.151Z,83.85
2019-02-06T08:47:50.074Z,83.61
2019-02-06T08:50:20.952Z,82.73
2019-02-06T08:52:50.163Z,82.67
2019-02-06T08:55:21.630Z,82.16
2019-02-06T08:57:50.831Z,82.85
2019-02-06T09:00:31.333Z,82.38
2019-02-06T09:03:01.422Z,82.16
2019-02-06T09:05:30.549Z,82.07
2019-02-06T09:07:59.517Z,81.76
2019-02-06T09:10:30.163Z,80.44
2019-02-06T09:13:00.203Z,80.87
2019-02-06T09:15:29.154Z,79.95
2019-02-06T09:17:58.032Z,79.55
2019-02-06T09:20:30.024Z,79.01
2019-02-06T09:23:00.141Z,79.54
2019-02-06T09:25:30.339Z,79.24
2019-02-06T09:27:59.493Z,78.62
2019-02-06T09:30:34.210Z,78.32
2019-02-06T09:33:03.591Z,78.42
2019-02-06T09:35:32.535Z,77.70
2019-02-06T09:38:01.430Z,77.86
2019-02-06T09:40:31.549Z,77.33
2019-02-06T09:43:00.923Z,77.50
2019-02-06T09:45:29.863Z,77.41
2019-02-06T09:47:58.733Z,77.04
2019-02-06T09:50:36.009Z,77.11
2019-02-06T09:53:05.267Z,76.76
2019-02-06T09:55:34.163Z,76.75
2019-02-06T09:58:03.045Z,76.48
2019-02-06T10:00:36.917Z,76.35
2019-02-06T10:03:07.096Z,76.14
2019-02-06T10:05:35.974Z,75.40
2019-02-06T10:08:05.811Z,75.73
2019-02-06T10:10:34.681Z,75.39
2019-02-06T10:13:03.551Z,75.03
2019-02-06T10:15:39.285Z,73.58
2019-02-06T10:18:08.642Z,73.30
2019-02-06T10:20:43.339Z,72.81
2019-02-06T10:23:12.555Z,72.83
2019-02-06T10:25:41.524Z,72.75
2019-02-06T10:28:10.203Z,73.29
2019-02-06T10:30:42.001Z,72.96
2019-02-06T10:33:10.581Z,73.23
2019-02-06T10:35:39.159Z,73.29
2019-02-06T10:38:08.175Z,73.50
2019-02-06T10:40:37.052Z,73.34
2019-02-06T10:43:06.087Z,73.60
2019-02-06T10:45:35.330Z,72.90
2019-02-06T10:48:04.089Z,73.34
2019-02-06T10:50:38.661Z,73.73
2019-02-06T10:53:07.618Z,72.96
2019-02-06T10:55:36.199Z,72.06
2019-02-06T10:58:05.341Z,71.26
2019-02-06T11:00:36.920Z,70.55
2019-02-06T11:03:05.934Z,69.61
2019-02-06T11:05:34.702Z,69.78
2019-02-06T11:08:03.301Z,69.67
2019-02-06T11:10:31.896Z,68.73
2019-02-06T11:13:00.479Z,69.32
2019-02-06T11:15:30.505Z,68.97
2019-02-06T11:17:59.087Z,68.83
2019-02-06T11:20:30.135Z,67.96
2019-02-06T11:23:01.731Z,67.93
2019-02-06T11:25:30.369Z,67.74
2019-02-06T11:27:58.972Z,67.18
2019-02-06T11:30:33.230Z,67.36
2019-02-06T11:33:01.811Z,66.62
2019-02-06T11:35:30.405Z,66.72
2019-02-06T11:37:59.003Z,66.46
2019-02-06T11:40:27.579Z,65.97
2019-02-06T11:42:56.232Z,65.23
2019-02-06T11:45:27.850Z,64.99
2019-02-06T11:47:56.518Z,64.39
2019-02-06T11:50:36.421Z,64.04
2019-02-06T11:53:06.242Z,63.92
2019-02-06T11:55:34.823Z,63.63
2019-02-06T11:58:03.496Z,63.87
2019-02-06T12:00:33.791Z,63.50
2019-02-06T12:03:02.376Z,64.64
2019-02-06T12:05:30.955Z,63.67
2019-02-06T12:07:59.551Z,63.75
2019-02-06T12:10:28.113Z,64.38
2019-02-06T12:12:56.715Z,64.21
2019-02-06T12:15:25.574Z,64.49
2019-02-06T12:17:54.141Z,64.84
2019-02-06T12:20:24.082Z,65.07
2019-02-06T12:22:52.844Z,65.33
2019-02-06T12:25:21.478Z,64.04
2019-02-06T12:27:51.835Z,63.77
2019-02-06T12:30:29.727Z,64.21
2019-02-06T12:32:58.463Z,64.60
2019-02-06T12:35:27.197Z,63.87
2019-02-06T12:37:55.947Z,64.42
2019-02-06T12:40:24.951Z,64.31
2019-02-06T12:42:53.717Z,64.59
2019-02-06T12:45:23.485Z,63.80
2019-02-06T12:47:52.332Z,63.52
2019-02-06T12:50:22.911Z,63.26
2019-02-06T12:52:51.544Z,63.91
2019-02-06T12:55:23.032Z,64.58
2019-02-06T12:57:51.546Z,64.68
2019-02-06T13:00:22.986Z,64.95
2019-02-06T13:02:56.464Z,64.99
2019-02-06T13:05:24.028Z,64.50
2019-02-06T13:07:52.774Z,65.74
2019-02-06T13:10:33.286Z,64.95
2019-02-06T13:12:53.482Z,65.29
2019-02-06T13:15:22.203Z,64.91
2019-02-06T13:17:51.147Z,64.43
2019-02-06T13:20:28.139Z,64.53
2019-02-06T13:22:56.983Z,64.98
2019-02-06T13:25:25.607Z,64.76
2019-02-06T13:27:54.178Z,64.87
2019-02-06T13:30:27.680Z,64.40
2019-02-06T13:32:56.824Z,63.64
2019-02-06T13:35:25.477Z,64.56
2019-02-06T13:37:54.266Z,64.09
2019-02-06T13:40:27.837Z,64.40
2019-02-06T13:42:57.458Z,63.55
2019-02-06T13:45:32.211Z,64.23
2019-02-06T13:48:00.771Z,63.99
2019-02-06T13:50:29.787Z,63.70
2019-02-06T13:52:59.258Z,64.08
2019-02-06T13:55:28.096Z,64.14
2019-02-06T13:57:56.623Z,63.93
2019-02-06T14:00:31.378Z,64.63
2019-02-06T14:03:00.588Z,64.50
2019-02-06T14:05:30.917Z,64.55
2019-02-06T14:08:02.177Z,64.87
2019-02-06T14:10:32.107Z,64.64
2019-02-06T14:13:01.374Z,64.83
2019-02-06T14:15:44.747Z,65.55
2019-02-06T14:18:13.452Z,65.59
2019-02-06T14:20:42.568Z,66.07
2019-02-06T14:23:14.076Z,65.58
2019-02-06T14:25:48.717Z,66.23
2019-02-06T14:28:44.998Z,65.97
2019-02-06T14:31:34.584Z,67.07
2019-02-06T14:34:24.305Z,67.76
2019-02-06T14:36:58.695Z,68.02
2019-02-06T14:39:45.697Z,68.19
2019-02-06T14:42:33.550Z,68.41
2019-02-06T14:45:40.061Z,68.34
2019-02-06T14:48:17.956Z,69.42
2019-02-06T14:51:10.636Z,69.10
2019-02-06T14:53:57.296Z,69.39
2019-02-06T14:56:28.941Z,69.81
2019-02-06T14:59:05.951Z,70.30
2019-02-06T15:02:00.169Z,70.44
2019-02-06T15:04:34.388Z,70.30
2019-02-06T15:07:18.131Z,70.56
2019-02-06T15:10:15.728Z,70.59
2019-02-06T15:13:06.003Z,69.93
2019-02-06T15:15:59.698Z,70.90
2019-02-06T15:18:47.874Z,70.80
2019-02-06T15:21:31.497Z,70.94
2019-02-06T15:24:11.772Z,71.01
2019-02-06T15:27:05.879Z,71.10
2019-02-06T15:29:43.250Z,71.26
2019-02-06T15:32:33.313Z,71.70
2019-02-06T15:35:17.070Z,71.84
2019-02-06T15:38:22.530Z,72.08
2019-02-06T15:40:57.322Z,72.27
2019-02-06T15:43:37.925Z,72.66
2019-02-06T15:46:27.933Z,72.03
2019-02-06T15:49:22.732Z,72.71
2019-02-06T15:52:05.023Z,72.86
2019-02-06T15:54:42.627Z,72.54
2019-02-06T15:57:34.017Z,72.80
2019-02-06T16:00:22.656Z,73.42
2019-02-06T16:03:15.618Z,73.48
2019-02-06T16:06:08.534Z,73.40
2019-02-06T16:08:52.177Z,73.41
2019-02-06T16:11:26.892Z,73.56
2019-02-06T16:14:07.756Z,74.02
2019-02-06T16:17:06.841Z,74.60
2019-02-06T16:19:38.761Z,74.32
2019-02-06T16:22:22.058Z,74.55
2019-02-06T16:25:06.265Z,74.22
2019-02-06T16:27:55.737Z,74.46
2019-02-06T16:30:36.456Z,74.45
2019-02-06T16:33:24.791Z,74.53
2019-02-06T16:36:20.722Z,74.28
2019-02-06T16:38:55.172Z,74.56
2019-02-06T16:41:52.817Z,74.48
2019-02-06T16:44:27.764Z,74.27
2019-02-06T16:47:02.408Z,74.83
2019-02-06T16:49:36.990Z,74.48
2019-02-06T16:52:14.458Z,74.37
2019-02-06T16:54:58.803Z,74.43
2019-02-06T16:57:36.546Z,73.87
2019-02-06T17:00:26.757Z,74.15
2019-02-06T17:03:01.858Z,74.27
2019-02-06T17:05:54.786Z,74.50
2019-02-06T17:08:26.720Z,74.49
2019-02-06T17:10:58.657Z,74.03
2019-02-06T17:13:35.731Z,74.80
2019-02-06T17:16:25.885Z,74.44
2019-02-06T17:19:18.714Z,74.49
2019-02-06T17:22:11.606Z,74.52
2019-02-06T17:25:12.536Z,74.27
2019-02-06T17:27:44.527Z,74.87
2019-02-06T17:30:16.912Z,74.76
2019-02-06T17:33:03.896Z,74.67
2019-02-06T17:35:41.663Z,74.33
2019-02-06T17:38:25.554Z,75.49
2019-02-06T17:41:03.024Z,74.99
2019-02-06T17:43:57.689Z,74.82
2019-02-06T17:46:38.576Z,75.30
2019-02-06T17:49:25.579Z,75.59
2019-02-06T17:52:00.280Z,75.44
2019-02-06T17:54:41.054Z,75.59
2019-02-06T17:57:09.977Z,75.51
2019-02-06T17:59:38.862Z,75.62
2019-02-06T18:02:07.934Z,75.19
2019-02-06T18:04:37.534Z,75.35
2019-02-06T18:07:07.096Z,75.29
2019-02-06T18:09:35.979Z,75.38
2019-02-06T18:12:05.829Z,75.83
2019-02-06T18:14:34.698Z,75.69
2019-02-06T18:17:04.603Z,75.37
2019-02-06T18:19:38.297Z,75.87
2019-02-06T18:22:07.812Z,75.62
2019-02-06T18:24:36.778Z,75.58
2019-02-06T18:27:06.280Z,76.04
2019-02-06T18:29:35.145Z,75.73
2019-02-06T18:32:04.536Z,75.23
2019-02-06T18:34:33.486Z,75.54
2019-02-06T18:37:02.430Z,75.73
2019-02-06T18:39:31.481Z,75.03
2019-02-06T18:42:00.352Z,75.16
2019-02-06T18:44:29.412Z,74.46
2019-02-06T18:46:59.714Z,74.68
2019-02-06T18:49:28.588Z,74.71
2019-02-06T18:51:57.667Z,74.39
2019-02-06T18:54:26.834Z,74.67
2019-02-06T18:56:56.483Z,74.63
2019-02-06T18:59:25.450Z,75.05
2019-02-06T19:01:55.522Z,74.81
2019-02-06T19:04:24.606Z,75.49
2019-02-06T19:06:53.547Z,75.33
2019-02-06T19:09:22.639Z,75.03
2019-02-06T19:11:51.532Z,75.46
2019-02-06T19:14:20.764Z,75.27
2019-02-06T19:16:49.915Z,74.94
2019-02-06T19:19:25.441Z,75.20
2019-02-06T19:21:49.456Z,75.50
2019-02-06T19:24:18.363Z,74.91
2019-02-06T19:26:47.258Z,75.25
2019-02-06T19:29:16.150Z,74.66
2019-02-06T19:31:45.403Z,75.22
2019-02-06T19:34:14.317Z,75.50
2019-02-06T19:36:43.227Z,75.76
2019-02-06T19:39:12.083Z,75.82
2019-02-06T19:41:41.197Z,75.93
2019-02-06T19:44:11.372Z,75.01
2019-02-06T19:46:40.462Z,75.28
2019-02-06T19:49:09.689Z,75.84
2019-02-06T19:51:38.629Z,75.38
2019-02-06T19:54:07.542Z,75.51
2019-02-06T19:56:37.293Z,75.29
2019-02-06T19:59:06.256Z,75.73
2019-02-06T20:01:35.129Z,75.48
2019-02-06T20:04:04.822Z,76.14
2019-02-06T20:06:34.074Z,76.23
2019-02-06T20:09:04.150Z,76.93
2019-02-06T20:11:37.260Z,77.05
2019-02-06T20:14:06.229Z,76.82
2019-02-06T20:16:35.200Z,76.67
2019-02-06T20:19:04.694Z,76.50
2019-02-06T20:21:33.644Z,77.30
2019-02-06T20:24:02.882Z,77.16
2019-02-06T20:26:31.782Z,76.59
2019-02-06T20:29:00.707Z,77.11
2019-02-06T20:31:29.589Z,76.98
2019-02-06T20:33:58.531Z,77.46
2019-02-06T20:36:27.442Z,77.07
2019-02-06T20:38:56.492Z,76.99
2019-02-06T20:41:26.552Z,77.42
2019-02-06T20:43:55.498Z,76.88
2019-02-06T20:46:24.701Z,76.81
2019-02-06T20:48:53.655Z,76.87
2019-02-06T20:51:22.552Z,77.07
2019-02-06T20:53:51.443Z,76.53
2019-02-06T20:56:30.976Z,77.02
2019-02-06T20:58:59.838Z,77.27
2019-02-06T21:01:28.744Z,77.38
2019-02-06T21:03:57.623Z,77.80
2019-02-06T21:06:26.607Z,77.46
2019-02-06T21:08:55.531Z,77.12
2019-02-06T21:11:24.435Z,77.48
2019-02-06T21:13:53.365Z,77.71
2019-02-06T21:16:22.286Z,77.84
2019-02-06T21:18:51.215Z,78.00
2019-02-06T21:21:20.120Z,77.96
2019-02-06T21:23:49.063Z,77.97
2019-02-06T21:26:17.962Z,77.45
2019-02-06T21:28:47.875Z,77.60
2019-02-06T21:31:17.047Z,78.09
2019-02-06T21:33:45.972Z,78.09
2019-02-06T21:36:14.858Z,78.13
2019-02-06T21:38:43.757Z,77.59
2019-02-06T21:41:12.666Z,77.82
2019-02-06T21:43:44.326Z,77.57
2019-02-06T21:46:12.560Z,77.93
2019-02-06T21:48:41.484Z,77.99
2019-02-06T21:51:10.366Z,78.22
2019-02-06T21:53:39.236Z,77.96
2019-02-06T21:56:08.150Z,77.51
2019-02-06T21:58:37.042Z,77.29
2019-02-06T22:01:06.022Z,77.06
2019-02-06T22:03:34.895Z,77.24
2019-02-06T22:06:03.776Z,77.23
2019-02-06T22:08:32.659Z,77.56
2019-02-06T22:11:01.609Z,78.01
2019-02-06T22:13:30.591Z,77.89
2019-02-06T22:15:59.535Z,77.71
2019-02-06T22:18:28.448Z,77.37
2019-02-06T22:20:57.972Z,77.16
2019-02-06T22:23:28.514Z,77.17
2019-02-06T22:25:57.369Z,77.47
2019-02-06T22:28:26.285Z,77.58
2019-02-06T22:30:55.148Z,77.62
2019-02-06T22:33:24.164Z,77.46
2019-02-06T22:35:53.057Z,77.35
2019-02-06T22:38:21.942Z,76.71
2019-02-06T22:40:50.818Z,76.68
2019-02-06T22:43:19.687Z,76.89
2019-02-06T22:45:48.591Z,77.13
2019-02-06T22:48:17.495Z,76.82
2019-02-06T22:50:46.363Z,76.16
2019-02-06T22:53:15.235Z,76.96
2019-02-06T22:55:44.234Z,76.92
2019-02-06T22:58:13.154Z,77.00
2019-02-06T23:00:52.437Z,76.40
2019-02-06T23:03:29.851Z,76.33
2019-02-06T23:05:58.737Z,75.86
2019-02-06T23:08:27.665Z,75.39
2019-02-06T23:10:57.136Z,75.45
2019-02-06T23:13:26.019Z,75.35
2019-02-06T23:15:54.932Z,74.96
2019-02-06T23:18:23.805Z,74.76
2019-02-06T23:20:52.662Z,74.64
2019-02-06T23:23:21.533Z,74.95
2019-02-06T23:25:50.418Z,74.95
2019-02-06T23:28:19.320Z,74.70
2019-02-06T23:30:48.204Z,74.99
2019-02-06T23:33:17.076Z,74.86
2019-02-06T23:35:45.967Z,75.31
2019-02-06T23:38:14.823Z,74.62
2019-02-06T23:40:43.684Z,74.83
2019-02-06T23:43:12.727Z,74.14
2019-02-06T23:45:41.593Z,74.47
2019-02-06T23:48:10.482Z,73.85
2019-02-06T23:50:39.351Z,73.93
2019-02-06T23:53:09.016Z,74.06
2019-02-06T23:55:37.892Z,74.77
2019-02-06T23:58:06.821Z,74.75
